Indianapolis International, IN

11:05 AM EST on December 26, 2014 (GMT -0500)
Eagle Creek | Change Station
CLOSE
Current Station
Airport
Location: Eagle Creek,
Elevation: 820 ft
Nearby Weather Stations

Elev 820 ft 39.83 °N, 86.30 °W | Updated 12 minutes ago

Partly Cloudy
Partly Cloudy
43 °F
Feels Like 37 °F
N
12
Wind Variable Wind from South
Gusts 17 mph

Today
High -- | Low -- °F
--% Chance of Precip.
Yesterday
High -- | Low -- °F
Precip. -- in
8:04 AM 5:26 PM
Waxing Crescent, 27% visible
Pressure 30.18 in
Visibility 10.0 miles
Clouds Clear
Windchill 37 °F
Dew Point 36 °F
Humidity 76%
Rainfall 0.00 in
Snow Depth Not available.
UV 2 out of 12
Pollen .10 out of 12
Air Quality Not available.
Flu Activity Not available.
METAR KEYE 261553Z AUTO 19010G15KT 10SM CLR 06/02 A3016 RMK AO2 SLP219 T00610022

More Conditions Fewer Conditions

Pressure 30.18 in
Visibility 10.0 miles
Clouds Clear
Windchill 37 °F
Dew Point 36 °F
Humidity 76%
Rainfall 0.00 in
Snow Depth Not available.
UV 2 out of 12
Pollen .10 out of 12
Air Quality Not available.
Flu Activity Not available.
METAR KEYE 261553Z AUTO 19010G15KT 10SM CLR 06/02 A3016 RMK AO2 SLP219 T00610022

More Conditions Fewer Conditions

10-Day Weather Forecast

Almanac

Astronomy

Dec. 26, 2014 Rise Set
Actual Time
Civil Twilight
Nautical Twilight
Astronomical Twilight
Moon
Length of Visible Light
Length of Day
Tomorrow will be .
, % of the Moon is Illuminated

Today's Extremes

State Highs State Lows

Community

WunderPhotos

Upload Photos

1,780,625 photos uploaded!

WunderBlogs® & News

Nearby

Air Quality

  Air Quality AQ Index Pollutant
Not available.

Snow Depth

Station Depth Elevation

Earthquake Activity

City Distance Mag. Time & Date
Minimum magnitude displayed is 2.5.

Coastal Water Temperatures

Place Temperature

Nearby Weather Stations